sensor_id;sensor_type;location;lat;lon;timestamp;pressure;altitude;pressure_sealevel;temperature;humidity
39491;BME280;25175;50.140;18.990;2023-07-30T00:02:42;97870.47;;;19.20;67.74
39491;BME280;25175;50.140;18.990;2023-07-30T00:05:53;97877.59;;;19.30;67.77
39491;BME280;25175;50.140;18.990;2023-07-30T00:08:58;97879.94;;;19.31;67.65
39491;BME280;25175;50.140;18.990;2023-07-30T00:12:08;97870.38;;;19.30;67.74
39491;BME280;25175;50.140;18.990;2023-07-30T00:15:13;97871.19;;;19.31;67.87
39491;BME280;25175;50.140;18.990;2023-07-30T00:18:18;97875.22;;;19.28;67.96
39491;BME280;25175;50.140;18.990;2023-07-30T00:21:23;97871.47;;;19.29;68.25
39491;BME280;25175;50.140;18.990;2023-07-30T00:24:28;97883.47;;;19.27;68.27
39491;BME280;25175;50.140;18.990;2023-07-30T00:27:35;97883.72;;;19.25;68.14
39491;BME280;25175;50.140;18.990;2023-07-30T00:30:40;97867.75;;;19.25;68.33
39491;BME280;25175;50.140;18.990;2023-07-30T00:33:45;97815.38;;;18.92;67.97
39491;BME280;25175;50.140;18.990;2023-07-30T00:36:50;97861.66;;;19.25;68.03
39491;BME280;25175;50.140;18.990;2023-07-30T00:39:54;97887.41;;;19.34;67.75
39491;BME280;25175;50.140;18.990;2023-07-30T00:43:02;97892.72;;;19.34;67.92
39491;BME280;25175;50.140;18.990;2023-07-30T00:46:07;97892.44;;;19.36;67.86
39491;BME280;25175;50.140;18.990;2023-07-30T00:49:13;97881.81;;;19.36;67.81
39491;BME280;25175;50.140;18.990;2023-07-30T00:52:19;97870.38;;;19.30;67.71
39491;BME280;25175;50.140;18.990;2023-07-30T00:55:26;97896.91;;;19.40;67.56
39491;BME280;25175;50.140;18.990;2023-07-30T00:58:33;97885.19;;;19.41;67.24
39491;BME280;25175;50.140;18.990;2023-07-30T01:01:41;97886.00;;;19.42;67.18
39491;BME280;25175;50.140;18.990;2023-07-30T01:04:48;97899.03;;;19.43;66.36
39491;BME280;25175;50.140;18.990;2023-07-30T01:07:55;97895.34;;;19.39;66.42
39491;BME280;25175;50.140;18.990;2023-07-30T01:11:01;97890.78;;;19.40;66.09
39491;BME280;25175;50.140;18.990;2023-07-30T01:14:10;97899.84;;;19.39;65.86
39491;BME280;25175;50.140;18.990;2023-07-30T01:17:18;97890.00;;;19.39;65.73
39491;BME280;25175;50.140;18.990;2023-07-30T01:20:23;97901.19;;;19.36;65.54
39491;BME280;25175;50.140;18.990;2023-07-30T01:23:30;97898.53;;;19.36;65.36
39491;BME280;25175;50.140;18.990;2023-07-30T01:26:40;97904.13;;;19.35;65.38
39491;BME280;25175;50.140;18.990;2023-07-30T01:29:51;97900.97;;;19.33;65.34
39491;BME280;25175;50.140;18.990;2023-07-30T01:33:01;97905.50;;;19.32;64.98
39491;BME280;25175;50.140;18.990;2023-07-30T01:36:10;97907.63;;;19.30;64.71
39491;BME280;25175;50.140;18.990;2023-07-30T01:39:23;97921.22;;;19.29;64.26
39491;BME280;25175;50.140;18.990;2023-07-30T01:42:29;97926.06;;;19.22;64.30
39491;BME280;25175;50.140;18.990;2023-07-30T01:45:35;97933.28;;;19.16;64.08
39491;BME280;25175;50.140;18.990;2023-07-30T01:48:40;97926.44;;;19.05;63.86
39491;BME280;25175;50.140;18.990;2023-07-30T01:51:45;97937.63;;;19.02;63.95
39491;BME280;25175;50.140;18.990;2023-07-30T01:54:53;97929.13;;;19.00;64.13
39491;BME280;25175;50.140;18.990;2023-07-30T01:57:59;97929.38;;;19.04;63.78
39491;BME280;25175;50.140;18.990;2023-07-30T02:01:04;97936.31;;;19.00;63.62
39491;BME280;25175;50.140;18.990;2023-07-30T02:04:09;97941.91;;;18.98;63.33
39491;BME280;25175;50.140;18.990;2023-07-30T02:07:15;97927.84;;;18.93;63.18
39491;BME280;25175;50.140;18.990;2023-07-30T02:10:23;97923.34;;;18.88;63.20
39491;BME280;25175;50.140;18.990;2023-07-30T02:13:29;97922.03;;;18.86;62.97
39491;BME280;25175;50.140;18.990;2023-07-30T02:16:34;97928.69;;;18.83;63.14
39491;BME280;25175;50.140;18.990;2023-07-30T02:19:39;97930.31;;;18.79;62.66
39491;BME280;25175;50.140;18.990;2023-07-30T02:22:43;97919.41;;;18.76;62.33
39491;BME280;25175;50.140;18.990;2023-07-30T02:25:52;97929.50;;;18.74;61.97
39491;BME280;25175;50.140;18.990;2023-07-30T02:28:57;97921.28;;;18.70;61.93
39491;BME280;25175;50.140;18.990;2023-07-30T02:32:02;97927.41;;;18.66;61.95
39491;BME280;25175;50.140;18.990;2023-07-30T02:35:08;97919.47;;;18.61;61.76
39491;BME280;25175;50.140;18.990;2023-07-30T02:38:13;97928.00;;;18.58;61.54
39491;BME280;25175;50.140;18.990;2023-07-30T02:41:20;97930.38;;;18.54;61.26
39491;BME280;25175;50.140;18.990;2023-07-30T02:44:25;97944.28;;;18.31;61.57
39491;BME280;25175;50.140;18.990;2023-07-30T02:47:30;97935.72;;;18.49;61.16
39491;BME280;25175;50.140;18.990;2023-07-30T02:50:35;97945.31;;;18.50;61.28
39491;BME280;25175;50.140;18.990;2023-07-30T02:53:43;97940.00;;;18.45;61.03
39491;BME280;25175;50.140;18.990;2023-07-30T02:56:51;97937.38;;;18.40;61.21
39491;BME280;25175;50.140;18.990;2023-07-30T02:59:55;97944.03;;;18.33;61.39
39491;BME280;25175;50.140;18.990;2023-07-30T03:03:01;97939.78;;;18.27;61.91
39491;BME280;25175;50.140;18.990;2023-07-30T03:06:05;97937.16;;;18.22;61.81
39491;BME280;25175;50.140;18.990;2023-07-30T03:09:11;97914.59;;;18.09;62.00
39491;BME280;25175;50.140;18.990;2023-07-30T03:12:18;97945.38;;;18.20;61.97
39491;BME280;25175;50.140;18.990;2023-07-30T03:15:23;97942.72;;;18.25;61.62
39491;BME280;25175;50.140;18.990;2023-07-30T03:18:28;97945.34;;;18.30;61.49
39491;BME280;25175;50.140;18.990;2023-07-30T03:21:33;97937.38;;;18.35;61.43
39491;BME280;25175;50.140;18.990;2023-07-30T03:24:37;97943.22;;;18.32;61.26
39491;BME280;25175;50.140;18.990;2023-07-30T03:27:45;97944.28;;;18.36;61.36
39491;BME280;25175;50.140;18.990;2023-07-30T03:30:50;97954.63;;;18.43;60.89
39491;BME280;25175;50.140;18.990;2023-07-30T03:33:55;97952.25;;;18.36;60.81
39491;BME280;25175;50.140;18.990;2023-07-30T03:37:00;97963.91;;;18.45;60.62
39491;BME280;25175;50.140;18.990;2023-07-30T03:40:07;97961.53;;;18.39;60.77
39491;BME280;25175;50.140;18.990;2023-07-30T03:43:15;97992.59;;;18.43;60.88
39491;BME280;25175;50.140;18.990;2023-07-30T03:46:20;97962.06;;;18.41;60.76
39491;BME280;25175;50.140;18.990;2023-07-30T03:49:25;97959.16;;;18.37;60.58
39491;BME280;25175;50.140;18.990;2023-07-30T03:52:30;97961.81;;;18.32;60.77
39491;BME280;25175;50.140;18.990;2023-07-30T03:55:35;97971.09;;;18.40;61.06
39491;BME280;25175;50.140;18.990;2023-07-30T03:58:43;97973.22;;;18.43;60.98
39491;BME280;25175;50.140;18.990;2023-07-30T04:01:47;97971.34;;;18.38;60.82
39491;BME280;25175;50.140;18.990;2023-07-30T04:04:52;97971.34;;;18.43;61.02
39491;BME280;25175;50.140;18.990;2023-07-30T04:07:57;97972.69;;;18.41;61.51
39491;BME280;25175;50.140;18.990;2023-07-30T04:11:02;97962.06;;;18.41;61.13
39491;BME280;25175;50.140;18.990;2023-07-30T04:14:11;97890.19;;;17.87;61.36
39491;BME280;25175;50.140;18.990;2023-07-30T04:17:17;97961.28;;;18.35;61.46
39491;BME280;25175;50.140;18.990;2023-07-30T04:20:23;97967.66;;;18.34;61.69
39491;BME280;25175;50.140;18.990;2023-07-30T04:23:30;97986.78;;;18.36;61.93
39491;BME280;25175;50.140;18.990;2023-07-30T04:26:35;97992.34;;;18.35;61.57
39491;BME280;25175;50.140;18.990;2023-07-30T04:29:43;97999.00;;;18.32;61.79
39491;BME280;25175;50.140;18.990;2023-07-30T04:32:47;98003.00;;;18.30;61.79
39491;BME280;25175;50.140;18.990;2023-07-30T04:35:53;97990.50;;;18.30;61.27
39491;BME280;25175;50.140;18.990;2023-07-30T04:38:58;97994.75;;;18.31;61.12
39491;BME280;25175;50.140;18.990;2023-07-30T04:42:07;97930.00;;;17.92;61.27
39491;BME280;25175;50.140;18.990;2023-07-30T04:45:16;98000.31;;;18.35;61.35
39491;BME280;25175;50.140;18.990;2023-07-30T04:48:25;98000.88;;;18.37;61.23
39491;BME280;25175;50.140;18.990;2023-07-30T04:51:29;98004.03;;;18.39;61.67
39491;BME280;25175;50.140;18.990;2023-07-30T04:54:34;97987.59;;;18.37;61.86
39491;BME280;25175;50.140;18.990;2023-07-30T04:57:39;97992.91;;;18.37;62.08
39491;BME280;25175;50.140;18.990;2023-07-30T05:00:47;97996.34;;;18.37;62.13
39491;BME280;25175;50.140;18.990;2023-07-30T05:03:52;98000.31;;;18.35;62.00
39491;BME280;25175;50.140;18.990;2023-07-30T05:06:57;98005.63;;;18.35;62.28
39491;BME280;25175;50.140;18.990;2023-07-30T05:10:02;98011.75;;;18.35;62.48
39491;BME280;25175;50.140;18.990;2023-07-30T05:13:11;98014.16;;;18.37;62.94
39491;BME280;25175;50.140;18.990;2023-07-30T05:16:19;98007.75;;;18.43;62.28
39491;BME280;25175;50.140;18.990;2023-07-30T05:19:24;98009.59;;;18.47;62.34
39491;BME280;25175;50.140;18.990;2023-07-30T05:22:28;98018.63;;;18.51;62.26
39491;BME280;25175;50.140;18.990;2023-07-30T05:25:34;98023.94;;;18.51;62.28
39491;BME280;25175;50.140;18.990;2023-07-30T05:28:38;98033.25;;;18.44;62.45
39491;BME280;25175;50.140;18.990;2023-07-30T05:31:46;98032.41;;;18.58;63.05
39491;BME280;25175;50.140;18.990;2023-07-30T05:34:51;98023.91;;;18.61;63.38
39491;BME280;25175;50.140;18.990;2023-07-30T05:37:56;97995.81;;;18.40;63.25
39491;BME280;25175;50.140;18.990;2023-07-30T05:41:01;98030.81;;;18.72;63.94
39491;BME280;25175;50.140;18.990;2023-07-30T05:44:06;98026.50;;;18.76;63.64
39491;BME280;25175;50.140;18.990;2023-07-30T05:47:13;98033.44;;;18.82;63.75
39491;BME280;25175;50.140;18.990;2023-07-30T05:50:18;97999.69;;;18.73;64.26
39491;BME280;25175;50.140;18.990;2023-07-30T05:53:23;97988.56;;;18.66;64.08
39491;BME280;25175;50.140;18.990;2023-07-30T05:56:28;98037.34;;;19.05;63.95
39491;BME280;25175;50.140;18.990;2023-07-30T05:59:32;98032.81;;;19.05;64.12
39491;BME280;25175;50.140;18.990;2023-07-30T06:02:40;98043.66;;;19.19;63.55
39491;BME280;25175;50.140;18.990;2023-07-30T06:05:45;98042.81;;;19.28;62.73
39491;BME280;25175;50.140;18.990;2023-07-30T06:08:50;98036.91;;;19.36;62.00
39491;BME280;25175;50.140;18.990;2023-07-30T06:11:55;98043.00;;;19.42;62.12
39491;BME280;25175;50.140;18.990;2023-07-30T06:15:01;98035.00;;;19.47;60.49
39491;BME280;25175;50.140;18.990;2023-07-30T06:18:08;98041.09;;;19.52;59.87
39491;BME280;25175;50.140;18.990;2023-07-30T06:21:15;98026.94;;;19.57;60.49
39491;BME280;25175;50.140;18.990;2023-07-30T06:24:19;98038.06;;;19.69;59.60
39491;BME280;25175;50.140;18.990;2023-07-30T06:27:25;98009.94;;;19.58;59.18
39491;BME280;25175;50.140;18.990;2023-07-30T06:30:29;98041.94;;;19.81;59.20
39491;BME280;25175;50.140;18.990;2023-07-30T06:33:37;98054.41;;;19.91;58.96
39491;BME280;25175;50.140;18.990;2023-07-30T06:36:41;98042.66;;;19.97;58.85
39491;BME280;25175;50.140;18.990;2023-07-30T06:39:47;98041.25;;;20.04;58.47
39491;BME280;25175;50.140;18.990;2023-07-30T06:42:52;98033.78;;;20.06;57.97
39491;BME280;25175;50.140;18.990;2023-07-30T06:45:57;98036.88;;;20.18;57.33
39491;BME280;25175;50.140;18.990;2023-07-30T06:49:05;98032.31;;;20.24;57.56
39491;BME280;25175;50.140;18.990;2023-07-30T06:52:10;98011.31;;;20.17;57.35
39491;BME280;25175;50.140;18.990;2023-07-30T06:55:15;98035.69;;;20.34;57.48
39491;BME280;25175;50.140;18.990;2023-07-30T06:58:20;98026.03;;;20.38;56.54
39491;BME280;25175;50.140;18.990;2023-07-30T07:01:24;98041.13;;;20.48;56.68
39491;BME280;25175;50.140;18.990;2023-07-30T07:04:32;98038.69;;;20.51;56.24
39491;BME280;25175;50.140;18.990;2023-07-30T07:07:37;98037.28;;;20.59;56.82
39491;BME280;25175;50.140;18.990;2023-07-30T07:10:44;98034.56;;;20.64;56.72
39491;BME280;25175;50.140;18.990;2023-07-30T07:13:48;98034.75;;;20.72;56.67
39491;BME280;25175;50.140;18.990;2023-07-30T07:16:54;98030.94;;;20.78;56.08
39491;BME280;25175;50.140;18.990;2023-07-30T07:20:02;98016.22;;;20.86;55.75
39491;BME280;25175;50.140;18.990;2023-07-30T07:23:10;98011.53;;;20.96;55.49
39491;BME280;25175;50.140;18.990;2023-07-30T07:26:14;98027.47;;;21.01;55.03
39491;BME280;25175;50.140;18.990;2023-07-30T07:29:20;97977.09;;;20.76;55.42
39491;BME280;25175;50.140;18.990;2023-07-30T07:32:24;98025.94;;;21.19;55.23
39491;BME280;25175;50.140;18.990;2023-07-30T07:35:32;98016.22;;;21.28;54.82
39491;BME280;25175;50.140;18.990;2023-07-30T07:38:37;98028.41;;;21.34;54.93
39491;BME280;25175;50.140;18.990;2023-07-30T07:41:42;98039.78;;;21.39;54.08
39491;BME280;25175;50.140;18.990;2023-07-30T07:44:47;98025.28;;;21.45;53.41
39491;BME280;25175;50.140;18.990;2023-07-30T07:47:52;98023.06;;;21.52;53.68
39491;BME280;25175;50.140;18.990;2023-07-30T07:50:59;98017.91;;;21.61;53.90
39491;BME280;25175;50.140;18.990;2023-07-30T07:54:05;98010.59;;;21.66;52.53
39491;BME280;25175;50.140;18.990;2023-07-30T07:57:09;98020.19;;;21.67;52.99
39491;BME280;25175;50.140;18.990;2023-07-30T08:00:15;98013.66;;;21.73;52.35
39491;BME280;25175;50.140;18.990;2023-07-30T08:03:19;98007.47;;;21.78;51.68
39491;BME280;25175;50.140;18.990;2023-07-30T08:06:27;98014.59;;;21.82;51.89
39491;BME280;25175;50.140;18.990;2023-07-30T08:09:32;98029.88;;;21.95;52.04
39491;BME280;25175;50.140;18.990;2023-07-30T08:12:37;98026.63;;;21.98;50.68
39491;BME280;25175;50.140;18.990;2023-07-30T08:15:42;98019.63;;;22.02;51.83
39491;BME280;25175;50.140;18.990;2023-07-30T08:18:48;98019.31;;;22.04;50.51
39491;BME280;25175;50.140;18.990;2023-07-30T08:21:57;98014.06;;;21.99;50.76
39491;BME280;25175;50.140;18.990;2023-07-30T08:25:03;98022.66;;;21.96;50.55
39491;BME280;25175;50.140;18.990;2023-07-30T08:28:09;98016.03;;;21.93;51.22
39491;BME280;25175;50.140;18.990;2023-07-30T08:31:15;98029.63;;;22.10;51.36
39491;BME280;25175;50.140;18.990;2023-07-30T08:34:21;98048.69;;;22.22;51.09
39491;BME280;25175;50.140;18.990;2023-07-30T08:37:30;97837.09;;;20.97;50.86
39491;BME280;25175;50.140;18.990;2023-07-30T08:40:34;98039.41;;;22.33;50.99
39491;BME280;25175;50.140;18.990;2023-07-30T08:43:39;98041.91;;;22.43;51.55
39491;BME280;25175;50.140;18.990;2023-07-30T08:46:44;98050.34;;;22.50;51.27
39491;BME280;25175;50.140;18.990;2023-07-30T08:49:49;98052.44;;;22.53;50.35
39491;BME280;25175;50.140;18.990;2023-07-30T08:52:59;98052.53;;;22.48;49.86
39491;BME280;25175;50.140;18.990;2023-07-30T08:56:08;98039.63;;;22.50;49.61
39491;BME280;25175;50.140;18.990;2023-07-30T08:59:15;98054.72;;;22.60;49.59
39491;BME280;25175;50.140;18.990;2023-07-30T09:02:30;98052.44;;;22.67;50.06
39491;BME280;25175;50.140;18.990;2023-07-30T09:05:38;98056.41;;;22.69;48.73
39491;BME280;25175;50.140;18.990;2023-07-30T09:08:46;98044.22;;;22.63;48.48
39491;BME280;25175;50.140;18.990;2023-07-30T09:11:51;98053.94;;;22.73;49.02
39491;BME280;25175;50.140;18.990;2023-07-30T09:14:57;98044.00;;;22.73;49.99
39491;BME280;25175;50.140;18.990;2023-07-30T09:18:02;97886.75;;;21.76;48.53
39491;BME280;25175;50.140;18.990;2023-07-30T09:21:09;98038.59;;;22.78;49.40
39491;BME280;25175;50.140;18.990;2023-07-30T09:24:21;98052.50;;;22.80;49.65
39491;BME280;25175;50.140;18.990;2023-07-30T09:27:27;98045.16;;;22.86;48.72
39491;BME280;25175;50.140;18.990;2023-07-30T09:30:32;98048.34;;;22.88;48.91
39491;BME280;25175;50.140;18.990;2023-07-30T09:33:41;98052.31;;;22.90;48.88
39491;BME280;25175;50.140;18.990;2023-07-30T09:36:46;98038.00;;;22.95;49.60
39491;BME280;25175;50.140;18.990;2023-07-30T09:39:57;98035.53;;;22.98;49.14
39491;BME280;25175;50.140;18.990;2023-07-30T09:43:03;98035.44;;;23.03;50.07
39491;BME280;25175;50.140;18.990;2023-07-30T09:46:09;98042.44;;;23.13;49.55
39491;BME280;25175;50.140;18.990;2023-07-30T09:49:14;98033.03;;;23.15;49.69
39491;BME280;25175;50.140;18.990;2023-07-30T09:52:21;97995.50;;;22.93;49.02
39491;BME280;25175;50.140;18.990;2023-07-30T09:55:28;98019.44;;;23.25;48.58
39491;BME280;25175;50.140;18.990;2023-07-30T09:58:34;98037.56;;;23.28;48.54
39491;BME280;25175;50.140;18.990;2023-07-30T10:01:44;98035.97;;;23.27;48.13
39491;BME280;25175;50.140;18.990;2023-07-30T10:04:56;98035.97;;;23.27;48.12
39491;BME280;25175;50.140;18.990;2023-07-30T10:08:09;98024.50;;;23.27;47.39
39491;BME280;25175;50.140;18.990;2023-07-30T10:11:23;98028.94;;;23.31;47.47
39491;BME280;25175;50.140;18.990;2023-07-30T10:14:29;98030.22;;;23.34;47.12
39491;BME280;25175;50.140;18.990;2023-07-30T10:17:35;98027.53;;;23.34;47.12
39491;BME280;25175;50.140;18.990;2023-07-30T10:20:40;98017.84;;;23.38;47.65
39491;BME280;25175;50.140;18.990;2023-07-30T10:23:59;98020.91;;;23.45;47.88
39491;BME280;25175;50.140;18.990;2023-07-30T10:27:09;98023.66;;;23.53;48.03
39491;BME280;25175;50.140;18.990;2023-07-30T10:30:16;98022.72;;;23.58;46.53
39491;BME280;25175;50.140;18.990;2023-07-30T10:33:21;98018.97;;;23.59;46.42
39491;BME280;25175;50.140;18.990;2023-07-30T10:36:31;98015.88;;;23.65;47.36
39491;BME280;25175;50.140;18.990;2023-07-30T10:39:37;98017.44;;;23.66;44.93
39491;BME280;25175;50.140;18.990;2023-07-30T10:42:45;98013.06;;;23.70;45.17
39491;BME280;25175;50.140;18.990;2023-07-30T10:45:50;98012.03;;;23.80;45.42
39491;BME280;25175;50.140;18.990;2023-07-30T10:48:56;98008.75;;;23.83;46.22
39491;BME280;25175;50.140;18.990;2023-07-30T10:52:01;98020.19;;;23.97;46.59
39491;BME280;25175;50.140;18.990;2023-07-30T10:55:07;98015.25;;;24.04;45.11
39491;BME280;25175;50.140;18.990;2023-07-30T10:58:15;98015.72;;;24.06;44.34
39491;BME280;25175;50.140;18.990;2023-07-30T11:01:24;98022.94;;;24.05;44.39
39491;BME280;25175;50.140;18.990;2023-07-30T11:04:34;98020.03;;;24.15;46.19
39491;BME280;25175;50.140;18.990;2023-07-30T11:07:49;98020.19;;;24.19;45.14
39491;BME280;25175;50.140;18.990;2023-07-30T11:10:54;98016.44;;;24.20;45.16
39491;BME280;25175;50.140;18.990;2023-07-30T11:14:02;98017.84;;;24.17;43.77
39491;BME280;25175;50.140;18.990;2023-07-30T11:17:08;98020.31;;;24.14;43.57
39491;BME280;25175;50.140;18.990;2023-07-30T11:20:23;98015.28;;;24.12;43.22
39491;BME280;25175;50.140;18.990;2023-07-30T11:23:30;98023.34;;;24.12;43.88
39491;BME280;25175;50.140;18.990;2023-07-30T11:26:37;98020.66;;;24.12;43.51
39491;BME280;25175;50.140;18.990;2023-07-30T11:29:53;98021.88;;;24.06;43.58
39491;BME280;25175;50.140;18.990;2023-07-30T11:32:59;98017.63;;;24.14;44.33
39491;BME280;25175;50.140;18.990;2023-07-30T11:36:07;98020.66;;;24.12;44.32
39491;BME280;25175;50.140;18.990;2023-07-30T11:39:15;98010.53;;;24.09;44.61
39491;BME280;25175;50.140;18.990;2023-07-30T11:42:20;98001.84;;;24.04;45.62
39491;BME280;25175;50.140;18.990;2023-07-30T11:45:28;98001.84;;;24.04;45.71
39491;BME280;25175;50.140;18.990;2023-07-30T11:48:33;97997.13;;;24.09;45.21
39491;BME280;25175;50.140;18.990;2023-07-30T11:51:38;97987.63;;;24.03;46.36
39491;BME280;25175;50.140;18.990;2023-07-30T11:54:43;97997.25;;;24.04;45.65
39491;BME280;25175;50.140;18.990;2023-07-30T11:57:48;98004.34;;;24.00;45.89
39491;BME280;25175;50.140;18.990;2023-07-30T12:00:56;97995.88;;;23.93;45.83
39491;BME280;25175;50.140;18.990;2023-07-30T12:04:03;97991.03;;;23.95;45.71
39491;BME280;25175;50.140;18.990;2023-07-30T12:07:09;97992.59;;;23.96;46.41
39491;BME280;25175;50.140;18.990;2023-07-30T12:10:15;98002.59;;;24.04;47.18
39491;BME280;25175;50.140;18.990;2023-07-30T12:13:19;97997.88;;;24.01;45.96
39491;BME280;25175;50.140;18.990;2023-07-30T12:16:27;98004.34;;;24.00;45.67
39491;BME280;25175;50.140;18.990;2023-07-30T12:19:32;97989.88;;;23.88;45.45
39491;BME280;25175;50.140;18.990;2023-07-30T12:22:37;97990.78;;;23.83;45.83
39491;BME280;25175;50.140;18.990;2023-07-30T12:25:43;97989.88;;;23.88;45.40
39491;BME280;25175;50.140;18.990;2023-07-30T12:28:49;97999.50;;;23.89;45.78
39491;BME280;25175;50.140;18.990;2023-07-30T12:31:56;97997.63;;;23.89;46.39
39491;BME280;25175;50.140;18.990;2023-07-30T12:35:02;97993.03;;;23.90;46.45
39491;BME280;25175;50.140;18.990;2023-07-30T12:38:07;97996.69;;;23.94;46.22
39491;BME280;25175;50.140;18.990;2023-07-30T12:41:12;97989.31;;;23.99;46.81
39491;BME280;25175;50.140;18.990;2023-07-30T12:44:18;97944.22;;;23.71;45.71
39491;BME280;25175;50.140;18.990;2023-07-30T12:47:26;97978.22;;;23.92;46.55
39491;BME280;25175;50.140;18.990;2023-07-30T12:50:30;97985.97;;;23.94;46.70
39491;BME280;25175;50.140;18.990;2023-07-30T12:53:35;97984.06;;;23.94;46.56
39491;BME280;25175;50.140;18.990;2023-07-30T12:56:40;97988.66;;;23.94;45.94
39491;BME280;25175;50.140;18.990;2023-07-30T12:59:45;97986.38;;;23.87;45.93
39491;BME280;25175;50.140;18.990;2023-07-30T13:02:52;97981.53;;;23.89;46.14
39491;BME280;25175;50.140;18.990;2023-07-30T13:05:59;97988.94;;;23.92;45.87
39491;BME280;25175;50.140;18.990;2023-07-30T13:09:03;97972.88;;;23.92;46.24
39491;BME280;25175;50.140;18.990;2023-07-30T13:12:09;97983.75;;;23.96;44.78
39491;BME280;25175;50.140;18.990;2023-07-30T13:15:13;97986.44;;;23.96;45.32
39491;BME280;25175;50.140;18.990;2023-07-30T13:18:21;97979.13;;;24.01;45.32
39491;BME280;25175;50.140;18.990;2023-07-30T13:21:26;97973.50;;;24.11;46.60
39491;BME280;25175;50.140;18.990;2023-07-30T13:24:31;97980.19;;;24.22;46.20
39491;BME280;25175;50.140;18.990;2023-07-30T13:27:37;97973.06;;;24.26;45.66
39491;BME280;25175;50.140;18.990;2023-07-30T13:30:42;97967.88;;;24.30;46.43
39491;BME280;25175;50.140;18.990;2023-07-30T13:33:49;97961.28;;;24.36;46.14
39491;BME280;25175;50.140;18.990;2023-07-30T13:36:55;97958.66;;;24.44;45.58
39491;BME280;25175;50.140;18.990;2023-07-30T13:39:59;97944.59;;;24.47;45.42
39491;BME280;25175;50.140;18.990;2023-07-30T13:43:05;97940.19;;;24.43;45.12
39491;BME280;25175;50.140;18.990;2023-07-30T13:46:10;97951.31;;;24.58;45.29
39491;BME280;25175;50.140;18.990;2023-07-30T13:49:17;97948.81;;;24.70;44.23
39491;BME280;25175;50.140;18.990;2023-07-30T13:52:22;97949.94;;;24.78;44.55
39491;BME280;25175;50.140;18.990;2023-07-30T13:55:28;97944.75;;;24.90;43.87
39491;BME280;25175;50.140;18.990;2023-07-30T13:58:32;97943.66;;;24.99;43.69
39491;BME280;25175;50.140;18.990;2023-07-30T14:01:37;97941.44;;;25.01;42.82
39491;BME280;25175;50.140;18.990;2023-07-30T14:04:44;97941.78;;;25.08;43.30
39491;BME280;25175;50.140;18.990;2023-07-30T14:07:50;97942.09;;;25.15;42.76
39491;BME280;25175;50.140;18.990;2023-07-30T14:10:55;97938.66;;;25.23;43.18
39491;BME280;25175;50.140;18.990;2023-07-30T14:14:00;97936.59;;;25.20;42.64
39491;BME280;25175;50.140;18.990;2023-07-30T14:17:06;97931.56;;;25.19;41.79
39491;BME280;25175;50.140;18.990;2023-07-30T14:20:14;97935.50;;;25.30;41.73
39491;BME280;25175;50.140;18.990;2023-07-30T14:23:20;97931.41;;;25.32;41.74
39491;BME280;25175;50.140;18.990;2023-07-30T14:26:25;97931.84;;;25.34;42.19
39491;BME280;25175;50.140;18.990;2023-07-30T14:29:29;97919.03;;;25.31;41.47
39491;BME280;25175;50.140;18.990;2023-07-30T14:32:35;97917.16;;;25.32;41.19
39491;BME280;25175;50.140;18.990;2023-07-30T14:35:42;97921.13;;;25.34;41.55
39491;BME280;25175;50.140;18.990;2023-07-30T14:38:48;97935.16;;;25.31;40.77
39491;BME280;25175;50.140;18.990;2023-07-30T14:41:52;97925.06;;;25.28;40.53
39491;BME280;25175;50.140;18.990;2023-07-30T14:44:58;97925.53;;;25.30;40.86
39491;BME280;25175;50.140;18.990;2023-07-30T14:48:02;97924.56;;;25.35;41.61
39491;BME280;25175;50.140;18.990;2023-07-30T14:51:11;97929.31;;;25.38;41.17
39491;BME280;25175;50.140;18.990;2023-07-30T14:54:16;97920.81;;;25.36;40.48
39491;BME280;25175;50.140;18.990;2023-07-30T14:57:21;97919.84;;;25.32;41.26
39491;BME280;25175;50.140;18.990;2023-07-30T15:00:26;97927.75;;;25.28;40.37
39491;BME280;25175;50.140;18.990;2023-07-30T15:03:31;97892.66;;;24.99;41.60
39491;BME280;25175;50.140;18.990;2023-07-30T15:06:39;97937.84;;;25.23;41.65
39491;BME280;25175;50.140;18.990;2023-07-30T15:09:44;97925.22;;;25.23;41.65
39491;BME280;25175;50.140;18.990;2023-07-30T15:12:49;97925.69;;;25.17;41.60
39491;BME280;25175;50.140;18.990;2023-07-30T15:15:54;97923.13;;;25.12;41.97
39491;BME280;25175;50.140;18.990;2023-07-30T15:18:59;97924.38;;;25.06;42.31
39491;BME280;25175;50.140;18.990;2023-07-30T15:22:07;97908.59;;;24.96;42.83
39491;BME280;25175;50.140;18.990;2023-07-30T15:25:11;97921.25;;;25.04;43.90
39491;BME280;25175;50.140;18.990;2023-07-30T15:28:16;97911.47;;;24.99;44.16
39491;BME280;25175;50.140;18.990;2023-07-30T15:31:22;97915.53;;;24.88;44.66
39491;BME280;25175;50.140;18.990;2023-07-30T15:34:28;97888.34;;;24.64;44.90
39491;BME280;25175;50.140;18.990;2023-07-30T15:37:35;97918.97;;;24.63;45.01
39491;BME280;25175;50.140;18.990;2023-07-30T15:40:40;97919.53;;;24.52;45.54
39491;BME280;25175;50.140;18.990;2023-07-30T15:43:45;97916.22;;;24.46;45.88
39491;BME280;25175;50.140;18.990;2023-07-30T15:46:51;97918.69;;;24.34;45.60
39491;BME280;25175;50.140;18.990;2023-07-30T15:49:55;97914.91;;;24.35;45.72
39491;BME280;25175;50.140;18.990;2023-07-30T15:53:03;97915.03;;;24.30;45.24
39491;BME280;25175;50.140;18.990;2023-07-30T15:56:08;97912.50;;;24.25;45.30
39491;BME280;25175;50.140;18.990;2023-07-30T15:59:13;97912.94;;;24.19;44.75
39491;BME280;25175;50.140;18.990;2023-07-30T16:02:18;97919.25;;;24.14;44.65
39491;BME280;25175;50.140;18.990;2023-07-30T16:05:23;97916.53;;;24.06;44.76
39491;BME280;25175;50.140;18.990;2023-07-30T16:08:31;97917.28;;;23.98;45.21
39491;BME280;25175;50.140;18.990;2023-07-30T16:11:37;97928.00;;;23.98;45.58
39491;BME280;25175;50.140;18.990;2023-07-30T16:14:42;97928.00;;;23.98;45.78